Time;durP1;ratioP1;P1;durP2;ratioP2;P2;SDS_P1;SDS_P2;PMS_P1;PMS_P2;Temp;Humidity;BMP_temperature;BMP_pressure;BME280_temperature;BME280_humidity;BME280_pressure;Samples;Min_cycle;Max_cycle;Signal;HPM_P1;HPM_P2
2022/07/28 00:01:18;;;;;;;4.18;1.98;;;15.60;99.90;;;-141.84;52.18;20513.03;5050967;28;20571;-67
2022/07/28 00:03:47;;;;;;;4.57;1.85;;;15.60;99.90;;;-141.84;52.34;20504.91;5050357;28;20660;-64
2022/07/28 00:06:17;;;;;;;4.43;1.40;;;15.70;99.90;;;-141.84;52.68;20478.47;5050094;28;20248;-66
2022/07/28 00:08:45;;;;;;;2.07;1.40;;;15.60;99.90;;;-141.84;53.39;20450.03;5048942;28;20267;-59
2022/07/28 00:11:14;;;;;;;2.13;1.50;;;15.50;99.90;;;-141.84;54.34;20421.56;5050141;28;20248;-62
2022/07/28 00:13:42;;;;;;;3.58;1.70;;;15.40;99.90;;;-141.84;54.53;20423.59;5050269;28;20583;-63
2022/07/28 00:16:10;;;;;;;2.75;1.52;;;15.40;99.90;;;-141.84;54.31;20429.69;5050562;28;20197;-64
2022/07/28 00:18:38;;;;;;;3.10;1.70;;;15.30;99.90;;;-141.84;53.98;20468.31;5049924;28;20715;-63
2022/07/28 00:21:07;;;;;;;5.00;1.73;;;15.40;99.90;;;-141.84;53.76;20517.09;5049238;28;20679;-64
2022/07/28 00:23:36;;;;;;;2.33;1.30;;;15.40;99.90;;;-141.84;54.81;20433.75;5049870;28;20225;-64
2022/07/28 00:26:08;;;;;;;1.65;1.30;;;15.30;99.90;;;-141.84;55.13;20433.75;5030152;28;20748;-65
2022/07/28 00:28:36;;;;;;;3.03;1.60;;;15.30;99.90;;;-141.84;55.59;20401.22;5041367;28;20296;-61
2022/07/28 00:31:06;;;;;;;5.68;1.70;;;15.20;99.90;;;-141.84;55.21;20431.72;5050470;28;20212;-63
2022/07/28 00:33:41;;;;;;;4.30;1.50;;;15.20;99.90;;;-141.84;54.53;20445.94;5049799;28;20221;-61
2022/07/28 00:36:09;;;;;;;2.57;1.63;;;15.20;99.90;;;-141.84;54.32;20454.09;5052562;28;20225;-62
2022/07/28 00:38:41;;;;;;;2.97;1.67;;;15.20;99.90;;;-141.84;54.73;20421.56;5053592;28;20312;-63
2022/07/28 00:41:13;;;;;;;4.80;2.07;;;15.20;99.90;;;-141.84;55.20;20389.03;5053931;28;20255;-63
2022/07/28 00:43:43;;;;;;;4.60;1.60;;;15.10;99.90;;;-141.84;54.46;20445.94;5054058;28;20199;-62
2022/07/28 00:46:13;;;;;;;6.03;1.43;;;15.10;99.90;;;-141.84;54.57;20433.75;5054395;28;20213;-64
2022/07/28 00:48:44;;;;;;;4.90;1.90;;;15.10;99.90;;;-141.84;54.41;20437.81;5053508;28;20295;-64
2022/07/28 00:51:15;;;;;;;2.97;1.67;;;15.10;99.90;;;-141.84;54.48;20401.22;5053509;28;20228;-63
2022/07/28 00:53:45;;;;;;;4.47;1.70;;;15.10;99.90;;;-141.84;54.66;20372.78;5053799;28;20236;-64
2022/07/28 00:56:14;;;;;;;3.37;1.50;;;15.00;99.90;;;-141.84;55.33;20395.13;5053534;28;20309;-64
2022/07/28 00:58:43;;;;;;;3.10;1.50;;;14.90;99.90;;;-141.84;54.64;20395.13;5053926;28;20229;-62
2022/07/28 01:01:14;;;;;;;3.63;1.43;;;14.90;99.90;;;-141.84;54.91;20378.88;5054157;28;20205;-64
2022/07/28 01:03:46;;;;;;;2.60;1.67;;;14.80;99.90;;;-141.84;55.13;20364.66;5035329;28;20280;-63
2022/07/28 01:06:35;;;;;;;3.00;1.60;;;14.80;99.90;;;-141.84;55.46;20368.72;5033792;28;20656;-64
2022/07/28 01:09:18;;;;;;;2.80;1.70;;;14.70;99.90;;;-141.84;55.52;20338.22;5034092;28;20229;-62
2022/07/28 01:12:01;;;;;;;3.00;1.70;;;14.70;99.90;;;-141.84;55.91;20303.66;5041864;28;20237;-63
2022/07/28 01:14:38;;;;;;;3.70;1.73;;;14.60;99.90;;;-141.84;55.74;20370.75;5053569;28;20236;-63
2022/07/28 01:17:26;;;;;;;4.80;2.17;;;14.60;99.90;;;-141.84;55.24;20330.09;5053434;28;20256;-63
2022/07/28 01:20:06;;;;;;;2.43;1.50;;;14.70;99.90;;;-141.84;55.64;20313.84;5053604;28;20270;-62
2022/07/28 01:22:40;;;;;;;3.73;2.23;;;14.60;99.90;;;-141.84;56.33;20285.38;5053391;28;20185;-63
2022/07/28 01:25:23;;;;;;;2.93;1.77;;;14.50;99.90;;;-141.84;55.28;20348.38;5044569;28;20259;-64
2022/07/28 01:28:12;;;;;;;4.70;1.93;;;14.50;99.90;;;-141.84;55.62;20346.34;5032201;28;20226;-62
2022/07/28 01:30:46;;;;;;;4.07;1.90;;;14.50;99.90;;;-141.84;54.99;20387.00;5032130;28;20226;-64
2022/07/28 01:33:20;;;;;;;3.07;1.70;;;14.60;99.90;;;-141.84;55.26;20344.31;5032201;28;20229;-64
2022/07/28 01:36:08;;;;;;;3.80;1.87;;;14.60;99.90;;;-141.84;55.06;20346.34;5031917;28;20237;-62
2022/07/28 01:38:39;;;;;;;2.77;1.90;;;14.60;99.90;;;-141.84;55.43;20336.19;5032336;28;20725;-66
2022/07/28 01:41:14;;;;;;;4.87;1.90;;;14.50;99.90;;;-141.84;55.46;20336.19;5034855;28;20914;-64
2022/07/28 01:43:56;;;;;;;3.27;1.90;;;14.50;99.90;;;-141.84;55.96;20305.69;5051997;28;20189;-63
2022/07/28 01:46:26;;;;;;;3.53;1.77;;;14.50;99.90;;;-141.84;56.16;20311.78;5052295;28;20196;-61
2022/07/28 01:48:57;;;;;;;3.40;1.80;;;14.40;99.90;;;-141.84;56.58;20297.56;5052065;28;20240;-62
2022/07/28 01:51:30;;;;;;;3.23;1.83;;;14.30;99.90;;;-141.84;57.17;20265.03;5051715;28;20225;-62
2022/07/28 01:54:01;;;;;;;3.43;1.90;;;14.20;99.90;;;-141.84;57.42;20271.16;5051910;28;20225;-63
2022/07/28 01:56:33;;;;;;;3.90;1.80;;;14.10;99.90;;;-141.84;57.29;20289.44;5051724;28;20235;-62
2022/07/28 01:59:08;;;;;;;3.20;1.80;;;14.10;99.90;;;-141.84;57.36;20238.63;5052207;28;20225;-62
2022/07/28 02:01:44;;;;;;;3.73;2.03;;;14.10;99.90;;;-141.84;57.46;20248.78;5051716;28;20186;-62
2022/07/28 02:04:18;;;;;;;5.00;2.00;;;14.00;99.90;;;-141.84;55.80;20330.09;5052425;28;20181;-64
2022/07/28 02:06:49;;;;;;;5.67;2.00;;;14.20;99.90;;;-141.84;55.78;20338.22;5051685;28;20239;-64
2022/07/28 02:09:21;;;;;;;3.30;1.80;;;14.20;99.90;;;-141.84;55.85;20285.38;5051587;28;20233;-63
2022/07/28 02:11:53;;;;;;;3.23;2.03;;;14.30;99.90;;;-141.84;56.18;20273.19;5051510;28;20240;-63
2022/07/28 02:14:24;;;;;;;3.27;1.80;;;14.20;99.90;;;-141.84;57.29;20228.47;5051521;28;20248;-64
2022/07/28 02:16:58;;;;;;;3.97;2.20;;;14.10;99.90;;;-141.84;57.35;20244.72;5051513;28;20316;-63
2022/07/28 02:19:29;;;;;;;3.37;1.90;;;14.00;99.90;;;-141.84;57.41;20277.25;5052195;28;20197;-63
2022/07/28 02:21:57;;;;;;;4.87;1.90;;;14.00;99.90;;;-141.84;57.30;20269.13;5037472;28;20226;-62
2022/07/28 02:24:29;;;;;;;3.73;2.00;;;14.00;99.90;;;-141.84;57.53;20260.97;5031617;28;20226;-63
2022/07/28 02:27:03;;;;;;;2.93;1.60;;;14.00;99.90;;;-141.84;58.06;20210.16;5031431;28;20226;-64
2022/07/28 02:29:42;;;;;;;3.90;1.93;;;13.90;99.90;;;-141.84;58.74;20228.47;5031285;28;20225;-64
2022/07/28 02:32:31;;;;;;;4.27;2.00;;;13.80;99.90;;;-141.84;58.06;20216.25;5031170;28;20230;-63
2022/07/28 02:35:07;;;;;;;3.40;2.10;;;13.80;99.90;;;-141.84;58.43;20189.84;5031004;28;20667;-64
2022/07/28 02:37:40;;;;;;;3.27;2.00;;;13.80;99.90;;;-141.84;58.41;20256.91;5029729;28;20680;-63
2022/07/28 02:40:14;;;;;;;3.37;2.30;;;13.80;99.90;;;-141.84;58.51;20234.56;5030957;28;20269;-62
2022/07/28 02:42:48;;;;;;;3.53;2.27;;;13.80;99.90;;;-141.84;58.09;20224.41;5046025;28;20781;-63
2022/07/28 02:45:25;;;;;;;6.87;1.90;;;13.80;99.90;;;-141.84;59.13;20212.19;5049973;28;20248;-62
2022/07/28 02:48:01;;;;;;;3.60;2.17;;;13.80;99.90;;;-141.84;59.24;20238.63;5049771;28;20227;-64
2022/07/28 02:50:30;;;;;;;3.03;2.17;;;13.70;99.90;;;-141.84;59.02;20218.31;5050113;28;20229;-62
2022/07/28 02:53:01;;;;;;;2.93;2.20;;;13.70;99.90;;;-141.84;59.34;20195.94;5049631;28;20630;-63
2022/07/28 02:55:46;;;;;;;4.47;2.40;;;13.70;99.90;;;-141.84;59.51;20226.44;5049942;28;20213;-62
2022/07/28 02:58:20;;;;;;;3.03;2.00;;;13.70;99.90;;;-141.84;59.41;20232.53;5049734;28;20280;-64
2022/07/28 03:00:51;;;;;;;3.63;1.97;;;13.70;99.90;;;-141.84;59.53;20220.34;5049676;28;20254;-62
2022/07/28 03:03:23;;;;;;;5.40;2.30;;;13.70;99.90;;;-141.84;59.65;20218.31;5049532;28;20771;-64
2022/07/28 03:05:52;;;;;;;3.63;2.07;;;13.70;99.90;;;-141.84;60.14;20214.22;5049491;28;20267;-64
2022/07/28 03:08:20;;;;;;;4.43;2.40;;;13.70;99.90;;;-141.84;60.40;20169.53;5049539;28;20312;-63
2022/07/28 03:10:49;;;;;;;5.93;2.50;;;13.60;99.90;;;-141.84;60.70;20167.47;5049418;28;20699;-63
2022/07/28 03:13:17;;;;;;;5.23;2.50;;;13.60;99.90;;;-141.84;61.48;20143.09;5049784;28;20327;-62
2022/07/28 03:15:45;;;;;;;4.77;2.27;;;13.50;99.90;;;-141.84;61.20;20208.13;5049268;28;20601;-63
2022/07/28 03:18:13;;;;;;;3.83;2.17;;;13.50;99.90;;;-141.84;61.48;20151.22;5035206;28;20226;-63
2022/07/28 03:20:42;;;;;;;3.93;2.10;;;13.50;99.90;;;-141.84;61.17;20187.81;5029580;28;20235;-64
2022/07/28 03:23:11;;;;;;;3.57;2.20;;;13.50;99.90;;;-141.84;61.24;20145.13;5029553;28;20325;-64
2022/07/28 03:25:46;;;;;;;3.20;2.23;;;13.50;99.90;;;-141.84;60.80;20173.59;5029258;28;20209;-65
2022/07/28 03:28:19;;;;;;;4.77;2.40;;;13.60;99.90;;;-141.84;60.28;20171.56;5030003;28;20272;-62
2022/07/28 03:31:01;;;;;;;4.83;2.47;;;13.70;99.90;;;-141.84;60.86;20195.94;5029204;28;20623;-63
2022/07/28 03:33:30;;;;;;;3.03;2.33;;;13.70;99.90;;;-141.84;60.66;20181.72;5029387;28;20299;-64
2022/07/28 03:36:09;;;;;;;4.50;2.20;;;13.70;99.90;;;-141.84;60.99;20151.22;4991978;28;1075917;-64
2022/07/28 03:38:43;;;;;;;3.20;2.10;;;13.60;99.90;;;-141.84;61.05;20163.41;5030019;28;20221;-62
2022/07/28 03:41:14;;;;;;;4.37;2.37;;;13.60;99.90;;;-141.84;60.18;20212.19;5033236;28;20714;-62
2022/07/28 03:43:44;;;;;;;3.80;2.20;;;13.80;99.90;;;-141.84;60.31;20202.03;5050172;28;20186;-63
2022/07/28 03:46:13;;;;;;;4.87;2.20;;;13.90;99.90;;;-141.84;60.49;20216.25;5050458;28;20220;-61
2022/07/28 03:48:41;;;;;;;3.30;1.93;;;13.80;99.90;;;-141.84;60.30;20189.84;5049704;28;20311;-63
2022/07/28 03:51:11;;;;;;;5.37;2.30;;;13.90;99.90;;;-141.84;60.30;20222.38;5049633;28;20740;-63
2022/07/28 03:53:41;;;;;;;5.33;2.30;;;13.80;99.90;;;-141.84;60.20;20191.88;5049595;28;20662;-62
2022/07/28 03:56:09;;;;;;;5.33;2.23;;;13.80;99.90;;;-141.84;60.28;20165.44;5049755;28;20252;-62
2022/07/28 03:58:37;;;;;;;4.60;2.20;;;13.70;99.90;;;-141.84;60.28;20204.06;5049780;28;20296;-63
2022/07/28 04:01:06;;;;;;;6.03;2.23;;;13.80;99.90;;;-141.84;60.30;20191.88;5049902;28;20202;-63
2022/07/28 04:03:34;;;;;;;4.37;2.33;;;13.70;99.90;;;-141.84;59.71;20220.34;5049396;28;20287;-62
2022/07/28 04:06:13;;;;;;;10.33;2.27;;;13.70;99.90;;;-141.84;60.08;20212.19;5049493;28;20232;-63
2022/07/28 04:08:42;;;;;;;3.83;2.30;;;13.70;99.90;;;-141.84;60.12;20212.19;5049027;28;20231;-63
2022/07/28 04:11:10;;;;;;;5.77;2.20;;;13.80;99.90;;;-141.84;60.61;20187.81;5048720;28;20279;-63
2022/07/28 04:13:38;;;;;;;4.50;2.50;;;13.80;99.90;;;-141.84;60.16;20195.94;5042463;28;20233;-62
2022/07/28 04:16:07;;;;;;;3.30;2.37;;;14.10;99.90;;;-141.84;59.14;20260.97;5029895;28;20240;-62
2022/07/28 04:18:35;;;;;;;4.57;2.43;;;14.10;99.90;;;-141.84;58.45;20254.88;5046304;28;20225;-63
2022/07/28 04:21:04;;;;;;;5.77;2.40;;;14.20;99.90;;;-141.84;58.35;20295.53;5049444;28;20669;-64
2022/07/28 04:23:34;;;;;;;4.13;1.97;;;14.40;99.90;;;-141.84;57.67;20309.75;5049284;28;20228;-62
2022/07/28 04:26:02;;;;;;;4.40;2.57;;;14.50;99.90;;;-141.84;56.67;20358.56;5049428;28;20221;-63
2022/07/28 04:28:30;;;;;;;5.97;2.23;;;14.70;99.90;;;-141.84;56.77;20346.34;5049599;28;20293;-63
2022/07/28 04:30:58;;;;;;;6.80;2.17;;;14.70;99.90;;;-141.84;56.65;20330.09;5049341;28;20221;-63
2022/07/28 04:33:27;;;;;;;3.60;2.40;;;14.80;99.90;;;-141.84;57.03;20334.16;5033221;28;20221;-63
2022/07/28 04:35:55;;;;;;;4.10;2.23;;;14.80;99.90;;;-141.84;56.49;20387.00;5029161;28;20312;-62
2022/07/28 04:38:23;;;;;;;4.23;2.50;;;14.80;99.90;;;-141.84;56.36;20374.81;5029440;28;20683;-63
2022/07/28 04:40:52;;;;;;;3.73;2.30;;;14.90;99.90;;;-141.84;56.57;20397.16;5029530;28;20232;-63
2022/07/28 04:43:21;;;;;;;3.07;2.03;;;15.00;99.90;;;-141.84;56.82;20334.16;5029673;28;20213;-62
2022/07/28 04:45:50;;;;;;;4.77;2.60;;;15.00;99.90;;;-141.84;56.49;20360.59;5029022;28;20279;-62
2022/07/28 04:48:22;;;;;;;3.70;2.30;;;15.10;99.90;;;-141.84;55.00;20433.75;5029326;28;20230;-71
2022/07/28 04:50:52;;;;;;;4.35;2.33;;;15.20;99.90;;;-141.84;55.81;20391.06;5028892;28;20260;-71
2022/07/28 04:53:21;;;;;;;4.03;2.40;;;15.10;99.90;;;-141.84;55.90;20393.09;5029444;28;20261;-71
2022/07/28 04:55:51;;;;;;;4.83;2.30;;;15.20;99.90;;;-141.84;55.38;20421.56;5029518;28;20222;-71
2022/07/28 04:58:23;;;;;;;6.10;2.58;;;15.30;99.90;;;-141.84;54.53;20454.09;5030351;28;20201;-70
2022/07/28 05:00:52;;;;;;;3.85;2.50;;;15.30;99.90;;;-141.84;54.39;20468.31;5029060;28;20232;-71
2022/07/28 05:03:21;;;;;;;6.50;2.60;;;15.50;99.90;;;-141.84;52.44;20561.81;5028947;28;20237;-71
2022/07/28 05:05:49;;;;;;;3.90;2.50;;;15.80;99.90;;;-141.84;50.98;20687.84;5028732;28;20233;-71
2022/07/28 05:08:23;;;;;;;5.45;2.42;;;16.40;99.90;;;-141.84;47.96;20866.75;5029335;28;20314;-72
2022/07/28 05:10:55;;;;;;;4.07;2.35;;;17.20;99.90;;;-141.84;46.29;21017.19;5014759;28;20310;-72
2022/07/28 05:13:25;;;;;;;6.35;2.38;;;17.90;99.90;;;-141.84;44.49;21190.00;5029526;28;20183;-71
2022/07/28 05:16:01;;;;;;;4.22;2.40;;;18.60;99.90;;;-141.84;44.42;21183.88;5029154;28;20648;-71
2022/07/28 05:18:29;;;;;;;3.72;2.33;;;18.80;99.90;;;-141.84;44.03;21181.84;5045079;28;20225;-71
2022/07/28 05:20:57;;;;;;;5.10;2.55;;;18.90;99.90;;;-141.84;44.09;21163.56;5049149;28;20233;-72
2022/07/28 05:23:26;;;;;;;5.13;2.45;;;18.80;99.90;;;-141.84;43.44;21250.97;5053211;28;20251;-73
2022/07/28 05:25:54;;;;;;;7.32;2.65;;;18.90;99.90;;;-141.84;43.40;21269.28;5053374;28;20239;-70
2022/07/28 05:28:24;;;;;;;3.78;2.33;;;19.20;99.90;;;-141.84;43.87;21135.09;5053557;28;20198;-71
2022/07/28 05:30:52;;;;;;;5.93;2.60;;;19.00;99.90;;;-141.84;44.21;21096.47;5052855;28;20626;-70
2022/07/28 05:33:21;;;;;;;8.88;2.50;;;18.90;99.90;;;-141.84;45.12;21019.22;5052944;28;20319;-71
2022/07/28 05:35:56;;;;;;;4.55;2.25;;;18.50;99.90;;;-141.84;45.86;21007.00;5052504;28;20237;-70
2022/07/28 05:38:24;;;;;;;4.90;2.30;;;18.40;99.90;;;-141.84;46.35;20937.91;5052727;28;20237;-71
2022/07/28 05:40:53;;;;;;;6.07;2.25;;;18.20;99.90;;;-141.84;46.75;20909.44;5052753;28;20233;-71
2022/07/28 05:43:21;;;;;;;3.20;2.13;;;18.10;99.90;;;-141.84;47.48;20858.59;5053518;28;20201;-70
2022/07/28 05:45:51;;;;;;;4.22;2.03;;;18.00;99.90;;;-141.84;48.03;20791.53;5052638;28;20235;-71
2022/07/28 05:48:21;;;;;;;5.45;2.08;;;17.70;99.90;;;-141.84;48.29;20824.06;5052638;28;20283;-71
2022/07/28 05:50:50;;;;;;;4.75;1.80;;;17.70;99.90;;;-141.84;47.55;20872.84;5052337;28;20252;-71
2022/07/28 05:53:20;;;;;;;4.63;2.05;;;17.80;99.90;;;-141.84;48.09;20866.75;5052598;28;20304;-73
2022/07/28 05:55:48;;;;;;;5.38;2.17;;;17.70;99.90;;;-141.84;48.43;20815.91;5052430;28;20292;-71
2022/07/28 05:58:27;;;;;;;3.22;1.80;;;17.60;99.90;;;-141.84;48.98;20809.81;5053016;28;20636;-71
2022/07/28 06:01:00;;;;;;;4.68;1.92;;;17.60;99.90;;;-141.84;48.55;20830.16;5052380;28;20237;-72
2022/07/28 06:03:31;;;;;;;3.15;1.70;;;17.60;99.90;;;-141.84;48.70;20838.28;5052763;28;20312;-71
2022/07/28 06:06:04;;;;;;;2.30;1.75;;;17.70;99.90;;;-141.84;48.00;20852.50;5046380;28;20229;-70
2022/07/28 06:08:42;;;;;;;5.63;2.03;;;17.70;99.90;;;-141.84;48.10;20830.16;5032702;28;20230;-70
2022/07/28 06:11:10;;;;;;;4.43;1.90;;;17.70;99.90;;;-141.84;48.41;20842.34;5035431;28;20668;-71
2022/07/28 06:13:48;;;;;;;4.78;2.08;;;17.70;99.90;;;-141.84;47.86;20858.59;5053856;28;20259;-72
2022/07/28 06:16:19;;;;;;;3.97;1.92;;;17.70;99.90;;;-141.84;47.86;20805.75;5052646;28;20221;-72
2022/07/28 06:18:48;;;;;;;3.58;1.73;;;17.60;99.90;;;-141.84;48.20;20815.91;5052319;28;20229;-71
2022/07/28 06:21:16;;;;;;;2.85;1.67;;;17.60;99.90;;;-141.84;47.95;20811.84;5051867;28;20256;-71
2022/07/28 06:23:45;;;;;;;6.28;2.00;;;17.70;99.90;;;-141.84;47.64;20840.31;5051995;28;20224;-71
2022/07/28 06:26:13;;;;;;;3.28;1.83;;;17.70;99.90;;;-141.84;48.38;20811.84;5051620;28;20344;-71
2022/07/28 06:28:41;;;;;;;3.97;1.90;;;17.70;99.90;;;-141.84;47.83;20832.19;5051634;28;20605;-70
2022/07/28 06:31:09;;;;;;;4.22;1.95;;;17.60;99.90;;;-141.84;48.22;20842.34;5052353;28;20206;-71
2022/07/28 06:33:38;;;;;;;5.00;2.08;;;17.50;99.90;;;-141.84;48.51;20783.41;5051500;28;20608;-71
2022/07/28 06:36:07;;;;;;;4.03;1.77;;;17.40;99.90;;;-141.84;48.50;20809.81;5051522;28;20229;-64
2022/07/28 06:38:35;;;;;;;3.67;1.83;;;17.50;99.90;;;-141.84;48.55;20846.41;5051867;28;20233;-63
2022/07/28 06:41:04;;;;;;;3.70;2.00;;;17.50;99.90;;;-141.84;48.69;20848.44;5051756;28;20734;-63
2022/07/28 06:43:32;;;;;;;4.88;1.90;;;17.60;99.90;;;-141.84;48.79;20797.63;5051856;28;20205;-67
2022/07/28 06:46:06;;;;;;;4.75;1.95;;;17.60;99.90;;;-141.84;48.67;20799.66;5051812;28;20185;-61
2022/07/28 06:48:36;;;;;;;3.58;1.90;;;17.50;99.90;;;-141.84;49.24;20779.31;5051430;28;20252;-65
2022/07/28 06:51:06;;;;;;;4.72;1.73;;;17.40;99.90;;;-141.84;48.88;20842.34;5051380;28;20229;-63
2022/07/28 06:53:34;;;;;;;4.18;1.73;;;17.70;99.90;;;-141.84;47.53;20836.25;5051602;28;20248;-65
2022/07/28 06:56:05;;;;;;;3.45;1.42;;;17.80;99.90;;;-141.84;47.51;20874.88;5051181;28;20716;-65
2022/07/28 06:58:33;;;;;;;8.23;1.90;;;17.90;99.90;;;-141.84;48.22;20872.84;5051382;28;20288;-63
2022/07/28 07:01:06;;;;;;;5.30;2.00;;;17.90;99.90;;;-141.84;47.33;20891.13;5051573;28;20711;-62
2022/07/28 07:03:34;;;;;;;4.10;2.10;;;18.00;99.90;;;-141.84;46.54;20935.88;5034146;28;20258;-64
2022/07/28 07:06:03;;;;;;;3.88;2.00;;;18.20;99.90;;;-141.84;46.45;20923.66;5031191;28;20253;-62
2022/07/28 07:08:33;;;;;;;3.92;1.73;;;18.30;99.90;;;-141.84;46.75;20937.91;5031246;28;20230;-63
2022/07/28 07:11:01;;;;;;;4.50;1.65;;;18.30;99.90;;;-141.84;46.37;20968.38;5044847;28;20229;-61
2022/07/28 07:13:29;;;;;;;6.28;1.73;;;18.40;99.90;;;-141.84;46.03;20929.75;5049984;28;20207;-62
2022/07/28 07:15:57;;;;;;;3.35;1.80;;;18.40;99.90;;;-141.84;46.11;20909.44;5050921;28;20241;-65
2022/07/28 07:18:26;;;;;;;4.63;1.83;;;18.40;99.90;;;-141.84;46.19;20941.97;5050519;28;20318;-63
2022/07/28 07:20:57;;;;;;;5.78;1.83;;;18.50;99.90;;;-141.84;46.45;20925.69;5050513;28;20247;-62
2022/07/28 07:23:25;;;;;;;4.78;2.10;;;18.50;99.90;;;-141.84;45.66;20911.47;5050827;28;20308;-64
2022/07/28 07:25:55;;;;;;;3.08;1.60;;;18.40;99.90;;;-141.84;45.78;20954.16;5050975;28;20263;-64
2022/07/28 07:28:23;;;;;;;3.65;1.77;;;18.40;99.90;;;-141.84;46.17;20935.88;5051024;28;20194;-63
2022/07/28 07:30:51;;;;;;;5.30;1.40;;;18.40;99.90;;;-141.84;45.96;20984.66;5050891;28;20662;-62
2022/07/28 07:33:19;;;;;;;3.53;1.58;;;18.40;99.90;;;-141.84;46.02;20974.50;5050644;28;20316;-62
2022/07/28 07:35:47;;;;;;;5.15;1.60;;;18.50;99.90;;;-141.84;45.06;20960.25;5050560;28;20228;-63
2022/07/28 07:38:15;;;;;;;4.82;1.65;;;18.70;99.90;;;-141.84;45.22;21011.09;5050546;28;20237;-63
2022/07/28 07:40:44;;;;;;;4.13;2.03;;;18.80;99.90;;;-141.84;44.62;21004.97;5050510;28;20263;-65
2022/07/28 07:43:13;;;;;;;4.78;1.60;;;18.70;99.90;;;-141.84;45.07;21007.00;5051162;28;20692;-64
2022/07/28 07:45:41;;;;;;;3.58;1.63;;;18.80;99.90;;;-141.84;44.26;21076.13;5050376;28;20313;-62
2022/07/28 07:48:09;;;;;;;3.70;1.67;;;18.90;99.90;;;-141.84;43.86;21039.53;5050415;28;20777;-62
2022/07/28 07:50:38;;;;;;;6.05;1.67;;;19.00;99.90;;;-141.84;44.16;21031.41;5050688;28;20235;-63
2022/07/28 07:53:06;;;;;;;3.63;1.63;;;19.00;99.90;;;-141.84;44.05;21045.63;5050754;28;20232;-63
2022/07/28 07:55:34;;;;;;;2.40;1.52;;;19.00;99.90;;;-141.84;44.33;21070.03;5050937;28;20208;-64
2022/07/28 07:58:05;;;;;;;4.57;1.63;;;19.00;99.90;;;-141.84;44.30;21078.16;5049119;28;20213;-62
2022/07/28 08:00:34;;;;;;;3.45;1.70;;;19.10;99.90;;;-141.84;43.91;21057.84;5030950;28;20226;-62
2022/07/28 08:03:03;;;;;;;3.83;1.80;;;19.10;99.90;;;-141.84;43.83;21082.25;5030862;28;20312;-63
2022/07/28 08:05:38;;;;;;;6.00;1.58;;;19.10;99.90;;;-141.84;43.93;21065.97;5031036;28;20313;-63
2022/07/28 08:08:07;;;;;;;4.30;1.75;;;19.20;99.90;;;-141.84;43.50;21104.59;5030793;28;20267;-62
2022/07/28 08:10:36;;;;;;;6.55;1.75;;;19.30;99.90;;;-141.84;43.63;21106.63;5030866;28;20197;-63
2022/07/28 08:13:06;;;;;;;4.88;1.83;;;19.20;99.90;;;-141.84;43.49;21065.97;5049815;28;20212;-63
2022/07/28 08:15:35;;;;;;;3.05;1.70;;;19.20;99.90;;;-141.84;43.16;21124.94;5050322;28;20244;-62
2022/07/28 08:18:04;;;;;;;4.65;1.52;;;19.30;99.90;;;-141.84;43.28;21129.00;5050114;28;20229;-63
2022/07/28 08:20:32;;;;;;;2.67;1.70;;;19.40;99.90;;;-141.84;43.20;21124.94;5050470;28;20232;-63
2022/07/28 08:23:01;;;;;;;4.00;1.70;;;19.50;99.90;;;-141.84;43.07;21135.09;5049596;28;20783;-63
2022/07/28 08:25:29;;;;;;;3.17;1.75;;;19.60;99.90;;;-141.84;42.49;21183.88;5050872;28;20207;-63
2022/07/28 08:27:57;;;;;;;3.67;1.60;;;19.70;99.90;;;-141.84;42.62;21175.75;5050048;28;20209;-65
2022/07/28 08:30:25;;;;;;;4.60;1.50;;;19.70;99.90;;;-141.84;42.66;21204.22;5049819;28;20635;-64
2022/07/28 08:33:01;;;;;;;2.70;1.40;;;19.80;99.90;;;-141.84;41.78;21261.16;5049974;28;20225;-65
2022/07/28 08:35:29;;;;;;;6.47;2.08;;;19.90;99.90;;;-141.84;41.29;21267.25;5050134;28;20252;-66
2022/07/28 08:38:03;;;;;;;3.80;1.73;;;20.00;99.90;;;-141.84;41.81;21196.09;5050069;28;20312;-63
2022/07/28 08:40:32;;;;;;;4.28;1.40;;;19.90;99.90;;;-141.84;41.06;21257.09;5050753;28;20228;-62
2022/07/28 08:43:15;;;;;;;3.85;1.50;;;19.90;99.90;;;-141.84;41.22;21212.34;5050224;28;20267;-62
2022/07/28 08:45:47;;;;;;;3.63;1.48;;;19.90;99.90;;;-141.84;41.20;21269.28;5049836;28;20239;-62
2022/07/28 08:48:21;;;;;;;4.82;1.60;;;20.00;99.90;;;-141.84;40.96;21281.47;5049537;28;20225;-63
2022/07/28 08:50:51;;;;;;;5.88;1.83;;;20.10;99.90;;;-141.84;39.97;21320.09;5049904;28;20225;-62
2022/07/28 08:53:20;;;;;;;3.00;1.45;;;20.30;99.90;;;-141.84;39.54;21387.19;5049652;28;20221;-62
2022/07/28 08:55:49;;;;;;;4.28;1.25;;;20.40;99.90;;;-141.84;39.56;21403.47;5035908;28;20274;-63
2022/07/28 08:58:17;;;;;;;2.58;1.40;;;20.50;99.90;;;-141.84;39.26;21370.94;5034426;28;20232;-70
2022/07/28 09:00:47;;;;;;;3.67;1.48;;;20.60;99.90;;;-141.84;39.21;21387.19;5033819;28;20814;-72
2022/07/28 09:03:17;;;;;;;1.88;1.20;;;20.80;99.90;;;-141.84;38.92;21379.06;5033553;28;20337;-71
2022/07/28 09:05:46;;;;;;;5.07;1.48;;;20.80;99.90;;;-141.84;38.37;21403.47;5033455;28;20238;-72
2022/07/28 09:08:17;;;;;;;3.90;1.70;;;20.80;99.90;;;-141.84;38.91;21356.69;5033644;28;20233;-72
2022/07/28 09:10:45;;;;;;;2.00;1.10;;;20.80;99.90;;;-141.84;38.64;21407.53;5033725;28;20206;-72
2022/07/28 09:13:15;;;;;;;4.18;1.67;;;20.90;99.90;;;-141.84;38.45;21423.81;5034215;28;20212;-71
2022/07/28 09:15:45;;;;;;;5.63;1.58;;;21.00;99.90;;;-141.84;38.32;21458.38;5033489;28;20319;-70
2022/07/28 09:18:14;;;;;;;4.10;1.48;;;21.00;99.90;;;-141.84;38.75;21460.41;5047194;28;20264;-71
2022/07/28 09:20:44;;;;;;;2.10;1.63;;;21.00;99.90;;;-141.84;38.53;21468.53;5052988;28;20311;-71
2022/07/28 09:23:13;;;;;;;4.32;1.30;;;21.10;99.90;;;-141.84;37.59;21460.41;5053451;28;20309;-70
2022/07/28 09:26:08;;;;;;;5.25;1.60;;;21.20;99.90;;;-141.84;37.26;21572.22;5053570;28;20235;-73
2022/07/28 09:28:54;;;;;;;2.22;1.40;;;21.40;99.90;;;-141.84;37.25;21562.06;5053208;28;20186;-63
2022/07/28 09:31:25;;;;;;;4.53;1.35;;;21.50;99.90;;;-141.84;37.01;21586.47;5053883;28;20229;-64
2022/07/28 09:34:02;;;;;;;3.30;1.33;;;21.60;99.90;;;-141.84;37.13;21619.00;5053105;28;20777;-61
2022/07/28 09:36:40;;;;;;;2.83;1.23;;;21.70;99.90;;;-141.84;37.02;21639.31;5052925;28;20229;-63
2022/07/28 09:39:09;;;;;;;4.05;1.45;;;21.80;99.90;;;-141.84;36.61;21582.38;5053019;28;20351;-62
2022/07/28 09:41:48;;;;;;;5.22;1.30;;;21.80;99.90;;;-141.84;36.82;21612.88;5052812;28;20700;-62
2022/07/28 09:44:19;;;;;;;3.92;1.30;;;21.80;99.90;;;-141.84;36.74;21645.44;5053033;28;20316;-64
2022/07/28 09:46:48;;;;;;;2.83;1.40;;;21.80;99.90;;;-141.84;36.36;21680.00;5052919;28;20186;-62
2022/07/28 09:49:16;;;;;;;3.42;1.38;;;22.00;99.90;;;-141.84;35.61;21645.44;5053228;28;20201;-61
2022/07/28 09:52:00;;;;;;;2.85;1.33;;;21.90;99.90;;;-141.84;35.86;21643.38;5040404;28;20330;-62
2022/07/28 09:54:28;;;;;;;3.78;1.13;;;21.90;99.90;;;-141.84;35.83;21669.81;5032842;28;20308;-62
2022/07/28 09:56:56;;;;;;;5.43;1.30;;;21.90;99.90;;;-141.84;36.23;21635.25;5032698;28;20719;-62
2022/07/28 09:59:25;;;;;;;3.60;1.48;;;21.90;99.90;;;-141.84;35.85;21641.34;5032671;28;20269;-64
2022/07/28 10:01:57;;;;;;;3.83;1.20;;;21.90;99.90;;;-141.84;36.22;21639.31;5032466;28;20662;-62
2022/07/28 10:04:35;;;;;;;1.73;1.17;;;21.80;99.90;;;-141.84;35.50;21675.94;5033353;28;20187;-62
2022/07/28 10:07:08;;;;;;;2.65;1.30;;;21.90;99.90;;;-141.84;35.68;21669.81;5032916;28;20284;-63
2022/07/28 10:09:38;;;;;;;6.78;1.65;;;22.00;99.90;;;-141.84;35.45;21657.63;5032416;28;20225;-62
2022/07/28 10:12:22;;;;;;;5.60;1.50;;;22.00;99.90;;;-141.84;35.91;21675.94;5043180;28;20235;-62
2022/07/28 10:14:52;;;;;;;2.88;1.10;;;21.90;99.90;;;-141.84;35.31;21659.66;5052417;28;20243;-63
2022/07/28 10:17:27;;;;;;;2.63;1.58;;;21.90;99.90;;;-141.84;35.48;21700.31;5052424;28;20221;-63
2022/07/28 10:20:00;;;;;;;6.88;1.30;;;21.90;99.90;;;-141.84;35.58;21659.66;5052127;28;20240;-64
2022/07/28 10:22:32;;;;;;;3.00;1.48;;;21.90;99.90;;;-141.84;35.31;21692.19;5052570;28;20194;-63